createdAt,value
2022-09-11T00:02:09.138Z,13.06
2022-09-11T00:04:45.131Z,13.05
2022-09-11T00:07:45.150Z,13.05
2022-09-11T00:10:45.073Z,13.06
2022-09-11T00:13:16.483Z,13.08
2022-09-11T00:16:03.133Z,13.08
2022-09-11T00:18:39.216Z,13.09
2022-09-11T00:21:15.313Z,13.10
2022-09-11T00:23:53.838Z,13.10
2022-09-11T00:26:30.285Z,13.07
2022-09-11T00:29:06.346Z,13.08
2022-09-11T00:31:43.529Z,13.08
2022-09-11T00:34:18.106Z,13.09
2022-09-11T00:36:55.158Z,13.09
2022-09-11T00:39:31.296Z,13.08
2022-09-11T00:42:08.219Z,13.07
2022-09-11T00:44:45.473Z,13.08
2022-09-11T00:47:15.520Z,13.09
2022-09-11T00:49:55.056Z,13.09
2022-09-11T00:52:36.100Z,13.12
2022-09-11T00:55:14.769Z,13.13
2022-09-11T00:58:06.595Z,13.14
2022-09-11T01:00:44.954Z,13.13
2022-09-11T01:03:45.220Z,13.12
2022-09-11T01:06:14.007Z,13.12
2022-09-11T01:11:36.011Z,13.11
2022-09-11T01:14:40.006Z,13.06
2022-09-11T01:17:35.005Z,13.03
2022-09-11T01:20:36.646Z,13.01
2022-09-11T01:23:46.134Z,12.98
2022-09-11T01:26:53.192Z,12.96
2022-09-11T01:29:59.220Z,12.95
2022-09-11T01:32:42.195Z,12.93
2022-09-11T01:35:51.060Z,12.94
2022-09-11T01:38:54.604Z,12.94
2022-09-11T01:41:42.541Z,12.93
2022-09-11T01:44:41.924Z,12.92
2022-09-11T01:47:21.057Z,12.91
2022-09-11T01:50:10.295Z,12.89
2022-09-11T01:52:53.184Z,12.88
2022-09-11T01:55:29.257Z,12.85
2022-09-11T01:58:09.901Z,12.81
2022-09-11T02:00:53.788Z,12.80
2022-09-11T02:03:31.687Z,12.80
2022-09-11T02:06:16.162Z,12.80
2022-09-11T02:08:54.178Z,12.77
2022-09-11T02:11:54.833Z,12.73
2022-09-11T02:14:48.927Z,12.67
2022-09-11T02:17:52.391Z,12.62
2022-09-11T02:20:52.832Z,12.59
2022-09-11T02:23:29.387Z,12.55
2022-09-11T02:25:57.100Z,12.52
2022-09-11T02:30:38.261Z,12.49
2022-09-11T02:33:36.017Z,12.43
2022-09-11T02:36:50.669Z,12.39
2022-09-11T02:39:45.237Z,12.38
2022-09-11T02:42:44.586Z,12.35
2022-09-11T02:45:41.816Z,12.33
2022-09-11T02:48:49.873Z,12.31
2022-09-11T02:51:55.967Z,12.31
2022-09-11T02:54:56.007Z,12.30
2022-09-11T02:58:08.526Z,12.29
2022-09-11T03:00:46.736Z,12.31
2022-09-11T03:03:16.602Z,12.30
2022-09-11T03:07:55.093Z,12.33
2022-09-11T03:10:31.932Z,12.32
2022-09-11T03:13:07.736Z,12.33
2022-09-11T03:15:43.613Z,12.32
2022-09-11T03:18:15.614Z,12.33
2022-09-11T03:22:42.694Z,12.35
2022-09-11T03:25:20.516Z,12.29
2022-09-11T03:27:57.665Z,12.31
2022-09-11T03:30:37.709Z,12.31
2022-09-11T03:33:13.668Z,12.31
2022-09-11T03:35:43.284Z,12.31
2022-09-11T03:38:19.975Z,12.30
2022-09-11T03:40:57.976Z,12.28
2022-09-11T03:43:58.759Z,12.26
2022-09-11T03:49:19.316Z,12.23
2022-09-11T03:51:57.049Z,12.18
2022-09-11T03:54:58.212Z,12.16
2022-09-11T03:57:59.180Z,12.16
2022-09-11T04:00:59.621Z,12.14
2022-09-11T04:03:40.074Z,12.13
2022-09-11T04:06:16.878Z,12.11
2022-09-11T04:08:46.826Z,12.09
2022-09-11T04:13:35.721Z,12.09
2022-09-11T04:16:16.205Z,12.07
2022-09-11T04:18:54.294Z,12.07
2022-09-11T04:21:54.805Z,12.07
2022-09-11T04:24:22.617Z,12.07
2022-09-11T04:27:01.045Z,12.08
2022-09-11T04:29:39.861Z,12.08
2022-09-11T04:32:18.048Z,12.09
2022-09-11T04:34:54.759Z,12.10
2022-09-11T04:37:22.456Z,12.12
2022-09-11T04:40:00.885Z,12.11
2022-09-11T04:43:02.380Z,12.12
2022-09-11T04:45:41.778Z,12.12
2022-09-11T04:48:10.833Z,12.13
2022-09-11T04:50:48.289Z,12.14
2022-09-11T04:53:46.920Z,12.17
2022-09-11T04:56:29.747Z,12.19
2022-09-11T04:59:31.112Z,12.21
2022-09-11T05:02:03.629Z,12.21
2022-09-11T05:04:41.255Z,12.21
2022-09-11T05:07:08.852Z,12.22
2022-09-11T05:09:45.303Z,12.23
2022-09-11T05:12:13.102Z,12.23
2022-09-11T05:14:51.523Z,12.26
2022-09-11T05:17:28.386Z,12.28
2022-09-11T05:20:08.628Z,12.30
2022-09-11T05:22:47.330Z,12.31
2022-09-11T05:25:23.380Z,12.33
2022-09-11T05:28:00.329Z,12.35
2022-09-11T05:31:00.285Z,12.38
2022-09-11T05:34:00.686Z,12.38
2022-09-11T05:37:02.235Z,12.37
2022-09-11T05:40:04.674Z,12.37
2022-09-11T05:42:42.360Z,12.38
2022-09-11T05:45:19.373Z,12.40
2022-09-11T05:47:56.973Z,12.41
2022-09-11T05:50:34.596Z,12.42
2022-09-11T05:53:03.866Z,12.43
2022-09-11T05:55:35.621Z,12.45
2022-09-11T05:58:03.448Z,12.47
2022-09-11T06:00:31.432Z,12.49
2022-09-11T06:03:09.196Z,12.50
2022-09-11T06:05:47.411Z,12.50
2022-09-11T06:08:24.353Z,12.47
2022-09-11T06:11:02.850Z,12.43
2022-09-11T06:13:51.366Z,12.42
2022-09-11T06:16:32.073Z,12.42
2022-09-11T06:19:28.332Z,12.42
2022-09-11T06:22:05.612Z,12.44
2022-09-11T06:24:49.710Z,12.46
2022-09-11T06:27:26.350Z,12.46
2022-09-11T06:30:04.390Z,12.47
2022-09-11T06:32:48.587Z,12.48
2022-09-11T06:35:25.359Z,12.48
2022-09-11T06:38:02.950Z,12.47
2022-09-11T06:41:05.030Z,12.48
2022-09-11T06:44:07.292Z,12.46
2022-09-11T06:46:35.580Z,12.46
2022-09-11T06:49:28.301Z,12.43
2022-09-11T06:52:35.416Z,12.42
2022-09-11T06:55:31.361Z,12.41
2022-09-11T06:58:27.625Z,12.46
2022-09-11T07:01:05.394Z,12.43
2022-09-11T07:04:06.155Z,12.41
2022-09-11T07:07:06.765Z,12.44
2022-09-11T07:09:47.245Z,12.44
2022-09-11T07:12:24.358Z,12.41
2022-09-11T07:15:01.446Z,12.41
2022-09-11T07:20:28.473Z,12.46
2022-09-11T07:23:05.405Z,12.47
2022-09-11T07:26:06.095Z,12.47
2022-09-11T07:29:05.976Z,12.48
2022-09-11T07:32:07.098Z,12.49
2022-09-11T07:35:07.436Z,12.50
2022-09-11T07:38:08.057Z,12.48
2022-09-11T07:43:28.261Z,12.50
2022-09-11T07:46:05.547Z,12.51
2022-09-11T07:49:07.843Z,12.53
2022-09-11T07:52:08.982Z,12.58
2022-09-11T07:54:53.229Z,12.58
2022-09-11T07:57:24.500Z,12.59
2022-09-11T08:00:01.407Z,12.57
2022-09-11T08:03:04.227Z,12.57
2022-09-11T08:06:08.204Z,12.56
2022-09-11T08:09:09.101Z,12.55
2022-09-11T08:12:11.281Z,12.57
2022-09-11T08:17:31.576Z,12.54
2022-09-11T08:20:08.804Z,12.63
2022-09-11T08:23:09.862Z,12.72
2022-09-11T08:26:09.948Z,12.79
2022-09-11T08:29:10.914Z,12.79
2022-09-11T08:32:13.259Z,12.77
2022-09-11T08:34:53.072Z,12.68
2022-09-11T08:37:22.193Z,12.63
2022-09-11T08:42:13.035Z,12.58
2022-09-11T08:44:59.093Z,12.58
2022-09-11T08:48:11.319Z,12.60
2022-09-11T08:51:12.649Z,12.58
2022-09-11T08:54:19.638Z,12.63
2022-09-11T08:57:03.473Z,12.69
2022-09-11T08:59:59.465Z,12.75
2022-09-11T09:03:20.029Z,12.78
2022-09-11T09:06:14.311Z,12.85
2022-09-11T09:11:33.813Z,12.92
2022-09-11T09:14:20.906Z,12.92
2022-09-11T09:19:06.682Z,13.00
2022-09-11T09:22:16.684Z,13.10
2022-09-11T09:25:00.935Z,13.26
2022-09-11T09:28:00.504Z,13.35
2022-09-11T09:31:08.127Z,13.49
2022-09-11T09:33:56.706Z,13.57
2022-09-11T09:36:39.381Z,13.54
2022-09-11T09:39:14.255Z,13.54
2022-09-11T09:42:17.649Z,13.51
2022-09-11T09:45:23.571Z,13.36
2022-09-11T09:48:01.046Z,13.24
2022-09-11T09:50:36.201Z,13.19
2022-09-11T09:53:27.471Z,13.08
2022-09-11T09:56:04.950Z,13.00
2022-09-11T09:59:01.103Z,12.97
2022-09-11T10:02:01.884Z,12.92
2022-09-11T10:04:38.704Z,12.88
2022-09-11T10:07:20.769Z,12.76
2022-09-11T10:10:03.448Z,12.60
2022-09-11T10:15:39.624Z,12.26
2022-09-11T10:18:34.639Z,12.20
2022-09-11T10:21:11.687Z,12.14
2022-09-11T10:24:02.311Z,12.11
2022-09-11T10:26:46.569Z,12.11
2022-09-11T10:29:24.831Z,12.12
2022-09-11T10:32:03.767Z,12.14
2022-09-11T10:34:41.104Z,12.20
2022-09-11T10:37:26.842Z,12.40
2022-09-11T10:40:07.414Z,12.70
2022-09-11T10:42:45.315Z,13.05
2022-09-11T10:45:35.847Z,13.42
2022-09-11T10:48:16.102Z,13.79
2022-09-11T10:51:16.938Z,14.10
2022-09-11T10:54:20.165Z,14.37
2022-09-11T10:57:16.497Z,14.57
2022-09-11T11:00:06.200Z,14.79
2022-09-11T11:02:57.895Z,14.92
2022-09-11T11:05:45.722Z,15.05
2022-09-11T11:09:21.434Z,15.11
2022-09-11T11:12:18.823Z,15.09
2022-09-11T11:15:26.949Z,15.01
2022-09-11T11:18:24.474Z,15.15
2022-09-11T11:21:24.934Z,15.41
2022-09-11T11:24:23.589Z,15.82
2022-09-11T11:27:22.551Z,16.34
2022-09-11T11:30:17.260Z,16.63
2022-09-11T11:33:10.169Z,16.74
2022-09-11T11:36:38.298Z,16.95
2022-09-11T11:39:28.821Z,17.28
2022-09-11T11:42:13.061Z,17.48
2022-09-11T11:44:48.255Z,17.49
2022-09-11T11:47:42.440Z,17.68
2022-09-11T11:50:22.937Z,17.71
2022-09-11T11:53:08.336Z,17.72
2022-09-11T11:56:22.685Z,17.73
2022-09-11T11:58:54.011Z,17.67
2022-09-11T12:01:38.107Z,17.62
2022-09-11T12:04:33.234Z,17.51
2022-09-11T12:07:16.880Z,17.32
2022-09-11T12:10:22.184Z,17.22
2022-09-11T12:13:04.032Z,17.27
2022-09-11T12:16:15.501Z,17.35
2022-09-11T12:19:25.428Z,17.55
2022-09-11T12:22:10.831Z,17.67
2022-09-11T12:25:01.505Z,17.64
2022-09-11T12:27:39.617Z,17.79
2022-09-11T12:30:16.621Z,17.99
2022-09-11T12:33:35.249Z,18.16
2022-09-11T12:36:33.910Z,18.12
2022-09-11T12:39:26.549Z,18.00
2022-09-11T12:42:23.262Z,17.90
2022-09-11T12:44:51.078Z,17.90
2022-09-11T12:47:19.707Z,17.90
2022-09-11T12:49:54.349Z,17.95
2022-09-11T12:52:33.832Z,18.00
2022-09-11T12:55:40.305Z,17.95
2022-09-11T12:58:19.313Z,17.96
2022-09-11T13:01:23.537Z,17.93
2022-09-11T13:04:24.693Z,18.01
2022-09-11T13:07:26.463Z,17.87
2022-09-11T13:10:09.154Z,17.73
2022-09-11T13:15:44.775Z,17.52
2022-09-11T13:18:27.309Z,17.53
2022-09-11T13:21:10.030Z,17.61
2022-09-11T13:23:46.821Z,17.78
2022-09-11T13:26:25.803Z,17.94
2022-09-11T13:29:26.827Z,18.05
2022-09-11T13:32:13.897Z,18.08
2022-09-11T13:35:13.837Z,18.02
2022-09-11T13:37:51.745Z,18.11
2022-09-11T13:42:51.970Z,18.26
2022-09-11T13:45:28.765Z,18.23
2022-09-11T13:48:22.769Z,18.23
2022-09-11T13:51:29.622Z,18.25
2022-09-11T13:54:14.753Z,18.27
2022-09-11T13:56:54.472Z,18.24
2022-09-11T13:59:48.181Z,18.21
2022-09-11T14:02:41.234Z,18.22
2022-09-11T14:05:21.003Z,18.33
2022-09-11T14:08:24.791Z,18.49
2022-09-11T14:11:26.386Z,18.63
2022-09-11T14:14:26.659Z,18.60
2022-09-11T14:17:09.762Z,18.44
2022-09-11T14:19:47.266Z,18.38
2022-09-11T14:22:26.934Z,18.36
2022-09-11T14:25:27.803Z,18.31
2022-09-11T14:28:35.563Z,18.31
2022-09-11T14:31:14.402Z,18.27
2022-09-11T14:34:15.164Z,18.23
2022-09-11T14:37:11.565Z,18.14
2022-09-11T14:39:42.662Z,18.05
2022-09-11T14:42:23.147Z,17.92
2022-09-11T14:45:24.473Z,17.81
2022-09-11T14:48:25.973Z,17.70
2022-09-11T14:50:53.922Z,17.59
2022-09-11T14:53:31.687Z,17.52
2022-09-11T14:56:09.285Z,17.44
2022-09-11T14:58:46.394Z,17.39
2022-09-11T15:01:22.624Z,17.31
2022-09-11T15:04:23.110Z,17.23
2022-09-11T15:07:23.489Z,17.12
2022-09-11T15:10:15.340Z,16.97
2022-09-11T15:12:51.485Z,16.85
2022-09-11T15:15:29.580Z,16.78
2022-09-11T15:18:29.696Z,16.68
2022-09-11T15:21:30.045Z,16.55
2022-09-11T15:24:15.476Z,16.40
2022-09-11T15:26:52.887Z,16.32
2022-09-11T15:29:31.465Z,16.29
2022-09-11T15:32:10.686Z,16.27
2022-09-11T15:34:47.421Z,16.26
2022-09-11T15:37:24.345Z,16.25
2022-09-11T15:40:15.947Z,16.23
2022-09-11T15:42:43.671Z,16.20
2022-09-11T15:45:21.487Z,16.18
2022-09-11T15:48:10.629Z,16.12
2022-09-11T15:50:58.943Z,16.07
2022-09-11T15:53:49.492Z,15.97
2022-09-11T15:56:26.191Z,15.84
2022-09-11T15:59:26.274Z,15.72
2022-09-11T16:02:26.019Z,15.63
2022-09-11T16:05:26.336Z,15.49
2022-09-11T16:07:54.259Z,15.38
2022-09-11T16:12:16.982Z,15.30
2022-09-11T16:14:53.889Z,15.19
2022-09-11T16:17:32.500Z,15.13
2022-09-11T16:20:36.819Z,15.09
2022-09-11T16:23:12.821Z,15.03
2022-09-11T16:25:50.442Z,14.99
2022-09-11T16:28:26.816Z,14.95
2022-09-11T16:31:01.362Z,14.92
2022-09-11T16:33:51.839Z,14.88
2022-09-11T16:36:28.304Z,14.85
2022-09-11T16:39:28.776Z,14.82
2022-09-11T16:42:28.844Z,14.78
2022-09-11T16:45:28.636Z,14.73
2022-09-11T16:48:29.260Z,14.72
2022-09-11T16:51:29.737Z,14.69
2022-09-11T16:53:57.620Z,14.63
2022-09-11T16:58:20.553Z,14.59
2022-09-11T17:00:56.496Z,14.51
2022-09-11T17:03:38.228Z,14.48
2022-09-11T17:06:20.098Z,14.44
2022-09-11T17:08:51.829Z,14.38
2022-09-11T17:13:16.046Z,14.34
2022-09-11T17:15:52.751Z,14.27
2022-09-11T17:18:29.697Z,14.23
2022-09-11T17:21:30.516Z,14.18
2022-09-11T17:23:58.562Z,14.15
2022-09-11T17:28:28.098Z,14.13
2022-09-11T17:32:26.638Z,14.11
2022-09-11T17:34:59.421Z,14.06
2022-09-11T17:37:42.822Z,14.04
2022-09-11T17:40:19.222Z,14.02
2022-09-11T17:42:48.619Z,13.99
2022-09-11T17:46:56.733Z,14.01
2022-09-11T17:49:24.428Z,13.97
2022-09-11T17:51:52.369Z,13.96
2022-09-11T17:54:20.132Z,13.94
2022-09-11T17:56:57.502Z,13.92
2022-09-11T17:59:31.433Z,13.91
2022-09-11T18:02:31.831Z,13.93
2022-09-11T18:05:31.981Z,14.03
2022-09-11T18:08:33.226Z,14.02
2022-09-11T18:11:33.897Z,14.00
2022-09-11T18:14:38.811Z,13.98
2022-09-11T18:19:57.178Z,13.94
2022-09-11T18:22:35.856Z,13.94
2022-09-11T18:25:39.852Z,13.95
2022-09-11T18:28:19.975Z,13.95
2022-09-11T18:31:01.705Z,13.95
2022-09-11T18:33:38.161Z,13.91
2022-09-11T18:36:37.985Z,13.86
2022-09-11T18:39:05.834Z,13.80
2022-09-11T18:44:25.305Z,13.74
2022-09-11T18:46:54.530Z,13.68
2022-09-11T18:49:32.049Z,13.64
2022-09-11T18:52:20.611Z,13.59
2022-09-11T18:54:50.641Z,13.55
2022-09-11T18:59:29.353Z,13.54
2022-09-11T19:02:05.566Z,13.53
2022-09-11T19:04:42.458Z,13.54
2022-09-11T19:07:20.385Z,13.54
2022-09-11T19:09:49.389Z,13.56
2022-09-11T19:12:26.156Z,13.55
2022-09-11T19:15:04.700Z,13.55
2022-09-11T19:17:42.112Z,13.54
2022-09-11T19:20:19.945Z,13.54
2022-09-11T19:22:48.568Z,13.55
2022-09-11T19:27:07.465Z,13.56
2022-09-11T19:29:43.614Z,13.55
2022-09-11T19:32:23.732Z,13.56
2022-09-11T19:35:00.608Z,13.55
2022-09-11T19:37:29.485Z,13.55
2022-09-11T19:42:41.963Z,13.54
2022-09-11T19:45:18.320Z,13.49
2022-09-11T19:47:54.802Z,13.48
2022-09-11T19:50:35.789Z,13.47
2022-09-11T19:53:04.144Z,13.44
2022-09-11T19:57:27.340Z,13.43
2022-09-11T20:00:04.101Z,13.39
2022-09-11T20:02:41.406Z,13.39
2022-09-11T20:05:42.139Z,13.38
2022-09-11T20:08:43.387Z,13.36
2022-09-11T20:11:42.870Z,13.31
2022-09-11T20:14:43.017Z,13.28
2022-09-11T20:17:44.811Z,13.26
2022-09-11T20:23:04.179Z,13.20
2022-09-11T20:25:40.245Z,13.18
2022-09-11T20:28:39.895Z,13.15
2022-09-11T20:31:48.735Z,13.12
2022-09-11T20:34:28.095Z,13.08
2022-09-11T20:37:39.101Z,13.05
2022-09-11T20:44:04.427Z,13.00
2022-09-11T20:46:43.770Z,12.98
2022-09-11T20:49:43.770Z,12.96
2022-09-11T20:52:12.647Z,12.95
2022-09-11T20:55:03.008Z,12.95
2022-09-11T20:57:38.926Z,12.95
2022-09-11T21:00:29.963Z,12.94
2022-09-11T21:03:06.026Z,12.91
2022-09-11T21:05:41.911Z,12.88
2022-09-11T21:08:42.272Z,12.84
2022-09-11T21:11:42.681Z,12.85
2022-09-11T21:14:43.200Z,12.84
2022-09-11T21:17:42.746Z,12.81
2022-09-11T21:20:42.568Z,12.78
2022-09-11T21:23:42.919Z,12.73
2022-09-11T21:26:13.407Z,12.66
2022-09-11T21:28:50.067Z,12.61
2022-09-11T21:31:26.584Z,12.58
2022-09-11T21:34:04.431Z,12.54
2022-09-11T21:36:41.124Z,12.52
2022-09-11T21:39:09.278Z,12.51
2022-09-11T21:41:46.716Z,12.48
2022-09-11T21:44:46.627Z,12.44
2022-09-11T21:47:14.453Z,12.42
2022-09-11T21:52:27.088Z,12.43
2022-09-11T21:55:03.082Z,12.40
2022-09-11T21:57:40.037Z,12.37
2022-09-11T22:00:15.988Z,12.35
2022-09-11T22:02:57.840Z,12.33
2022-09-11T22:07:35.868Z,12.34
2022-09-11T22:10:12.135Z,12.32
2022-09-11T22:12:52.190Z,12.32
2022-09-11T22:15:28.810Z,12.31
2022-09-11T22:17:56.478Z,12.28
2022-09-11T22:22:40.288Z,12.24
2022-09-11T22:25:16.904Z,12.16
2022-09-11T22:28:07.493Z,12.15
2022-09-11T22:30:44.043Z,12.13
2022-09-11T22:33:44.590Z,12.12
2022-09-11T22:36:44.454Z,12.07
2022-09-11T22:39:44.652Z,12.06
2022-09-11T22:42:44.774Z,12.03
2022-09-11T22:45:12.500Z,12.00
2022-09-11T22:47:49.944Z,11.98
2022-09-11T22:50:50.969Z,11.98
2022-09-11T22:53:30.258Z,11.95
2022-09-11T22:55:58.205Z,11.94
2022-09-11T22:58:35.231Z,11.93
2022-09-11T23:01:13.649Z,11.92
2022-09-11T23:03:53.042Z,11.91
2022-09-11T23:06:48.470Z,11.89
2022-09-11T23:09:24.782Z,11.84
2022-09-11T23:12:01.146Z,11.80
2022-09-11T23:14:37.864Z,11.76
2022-09-11T23:17:11.652Z,11.74
2022-09-11T23:22:45.530Z,11.76
2022-09-11T23:25:31.636Z,11.73
2022-09-11T23:28:08.005Z,11.71
2022-09-11T23:30:44.283Z,11.68
2022-09-11T23:33:12.015Z,11.66
2022-09-11T23:35:41.112Z,11.64
2022-09-11T23:38:08.938Z,11.63
2022-09-11T23:40:36.624Z,11.62
2022-09-11T23:43:04.471Z,11.62
2022-09-11T23:45:32.270Z,11.62
2022-09-11T23:48:00.693Z,11.61
2022-09-11T23:50:28.371Z,11.58
2022-09-11T23:53:05.111Z,11.58
2022-09-11T23:55:42.447Z,11.56
2022-09-11T23:58:19.104Z,11.54
